»·PEaware :: N537TW KSNA-KSNA

N537TW :: KSNA-KSNA

FLIGHT INFORMATION

Flight Status: Arrived
Operator: Privately registered:
United States
More flights under this callsign
Pilot: Anonymous 20880 (20880)
Aircraft: Unknown
(P06T)
More flights by this aircraft type
Origin: KSNA John Wayne-Orange Co
United States
Destination: KSNA John Wayne-Orange Co
United States
More flights between these airports :: More routes between these airports
Route: SLI
File this flight plan on PilotEdge
Remarks: I-1 rating
Altitude:
(Current/Filed)
3,000ft
Speed:
(Current/Filed)
140kts
Departed: 12-Dec-18 03:04 PM
Arrived: 12-Dec-18 03:23 PM
Distance/Time
Traveled:
0nm/0:18
Distance/Time
To Go:
Arrived

Flight Plot

Page will automatically refresh every two minutes.


Map Options




Map Legend


Flown Route
Filed Route
Departure Airport
Arrival Airport
Navaid (VOR, NDB)
Fix

Horizontal Profiles

Position Reports

Time Latitude Longitude Heading Altitude Ground
Speed
12-Dec-18 14:35 33.676063 -117.871180 165 60ft 0kts
12-Dec-18 14:36 33.676063 -117.871180 165 60ft 0kts
12-Dec-18 14:37 33.676063 -117.871180 165 60ft 0kts
12-Dec-18 14:38 33.676063 -117.871180 165 60ft 0kts
12-Dec-18 14:39 33.676063 -117.871180 165 60ft 0kts
12-Dec-18 14:40 33.676063 -117.871180 165 60ft 0kts
12-Dec-18 14:41 33.676063 -117.871180 165 60ft 0kts
12-Dec-18 14:42 33.676063 -117.871180 165 60ft 0kts
12-Dec-18 14:43 33.676063 -117.871180 165 60ft 0kts
12-Dec-18 14:44 33.676063 -117.871180 165 60ft 0kts
12-Dec-18 14:45 33.676063 -117.871180 165 60ft 0kts
12-Dec-18 14:46 33.676063 -117.871180 165 60ft 0kts
12-Dec-18 14:47 33.676063 -117.871180 165 60ft 0kts
12-Dec-18 14:47 33.676063 -117.871180 165 60ft 0kts
12-Dec-18 14:49 33.676063 -117.871180 165 60ft 0kts
12-Dec-18 14:50 33.676063 -117.871180 165 60ft 0kts
12-Dec-18 14:50 33.676063 -117.871180 165 60ft 0kts
12-Dec-18 14:51 33.676063 -117.871180 165 60ft 0kts
12-Dec-18 14:53 33.676063 -117.871180 165 60ft 0kts
12-Dec-18 14:53 33.676063 -117.871180 165 60ft 0kts
12-Dec-18 14:54 33.676063 -117.871180 165 60ft 0kts
12-Dec-18 14:56 33.676063 -117.871180 165 60ft 0kts
12-Dec-18 14:56 33.676063 -117.871180 165 60ft 0kts
12-Dec-18 14:57 33.676063 -117.871180 165 60ft 0kts
12-Dec-18 14:58 33.676063 -117.871180 165 60ft 0kts
12-Dec-18 14:59 33.676461 -117.869837 28 60ft 23kts
12-Dec-18 15:00 33.681273 -117.866630 93 60ft 2kts
12-Dec-18 15:01 33.681229 -117.866481 113 60ft 0kts
12-Dec-18 15:02 33.681229 -117.866481 113 60ft 0kts
12-Dec-18 15:03 33.672987 -117.870739 206 365ft 66kts
12-Dec-18 15:04 33.656822 -117.892518 241 1306ft 110kts
12-Dec-18 15:05 33.642280 -117.928166 241 1998ft 134kts
12-Dec-18 15:06 33.643269 -117.970522 340 2156ft 153kts
12-Dec-18 15:07 33.680372 -117.959359 21 2969ft 141kts
12-Dec-18 15:08 33.718663 -117.937048 31 3002ft 161kts
12-Dec-18 15:09 33.756724 -117.909120 31 3000ft 163kts
12-Dec-18 15:10 33.794961 -117.880312 31 2998ft 162kts
12-Dec-18 15:11 33.832464 -117.850995 31 2994ft 156kts
12-Dec-18 15:12 33.866840 -117.824009 31 2992ft 142kts
12-Dec-18 15:13 33.892348 -117.792534 92 3000ft 141kts
12-Dec-18 15:14 33.890250 -117.746316 91 2991ft 131kts
12-Dec-18 15:15 33.863407 -117.737451 220 3001ft 128kts
12-Dec-18 15:16 33.834450 -117.764471 218 2997ft 134kts
12-Dec-18 15:17 33.802433 -117.787893 211 2770ft 137kts
12-Dec-18 15:18 33.769103 -117.809560 209 2025ft 136kts
12-Dec-18 15:19 33.736196 -117.830470 208 1289ft 132kts
12-Dec-18 15:20 33.705874 -117.849692 207 614ft 104kts
12-Dec-18 15:21 33.685240 -117.862709 205 187ft 74kts
12-Dec-18 15:22 33.678100 -117.868563 255 60ft 0kts
12-Dec-18 15:23 33.677111 -117.869417 208 60ft 18kts
12-Dec-18 15:24 33.676141 -117.870844 51 60ft 0kts
12-Dec-18 15:25 33.676141 -117.870845 51 60ft 0kts
12-Dec-18 15:26 33.676141 -117.870845 51 60ft 0kts

Navigation Log

Ident Type
Flight plan parsing failed, navigation log unavailable